createdAt,value
2019-03-15T00:00:52.204Z,5.19
2019-03-15T00:03:42.547Z,5.13
2019-03-15T00:12:54.318Z,5.13
2019-03-15T00:15:51.669Z,5.20
2019-03-15T00:18:36.004Z,5.30
2019-03-15T00:21:57.601Z,5.34
2019-03-15T00:24:46.675Z,5.40
2019-03-15T00:27:36.404Z,5.46
2019-03-15T00:30:29.718Z,5.56
2019-03-15T00:33:19.241Z,5.55
2019-03-15T00:36:13.934Z,5.54
2019-03-15T00:39:01.601Z,5.51
2019-03-15T00:41:55.039Z,5.49
2019-03-15T00:44:46.850Z,5.50
2019-03-15T00:47:36.656Z,5.46
2019-03-15T00:50:28.214Z,5.57
2019-03-15T00:53:36.708Z,5.70
2019-03-15T00:56:15.866Z,5.57
2019-03-15T00:59:06.433Z,5.53
2019-03-15T01:02:00.147Z,5.54
2019-03-15T01:04:54.724Z,5.67
2019-03-15T01:07:50.651Z,5.60
2019-03-15T01:10:39.616Z,5.83
2019-03-15T01:13:33.610Z,5.70
2019-03-15T01:16:34.691Z,5.90
2019-03-15T01:19:57.181Z,5.69
2019-03-15T01:22:46.587Z,5.75
2019-03-15T01:25:39.494Z,5.62
2019-03-15T01:29:01.673Z,5.76
2019-03-15T01:35:41.023Z,5.83
2019-03-15T01:38:31.098Z,5.93
2019-03-15T01:41:19.071Z,5.93
2019-03-15T01:44:11.726Z,5.98
2019-03-15T01:49:51.628Z,6.17
2019-03-15T01:52:41.456Z,6.09
2019-03-15T01:55:30.303Z,6.17
2019-03-15T01:58:19.992Z,6.29
2019-03-15T02:01:08.163Z,6.24
2019-03-15T02:03:58.539Z,6.24
2019-03-15T02:06:49.182Z,6.32
2019-03-15T02:09:47.400Z,6.22
2019-03-15T02:12:37.022Z,6.16
2019-03-15T02:15:33.479Z,6.19
2019-03-15T02:18:19.110Z,6.22
2019-03-15T02:21:06.892Z,6.12
2019-03-15T02:23:57.587Z,6.15
2019-03-15T02:27:12.748Z,6.27
2019-03-15T02:29:39.819Z,6.27
2019-03-15T02:32:30.699Z,6.20
2019-03-15T02:35:25.698Z,6.13
2019-03-15T02:38:18.358Z,5.86
2019-03-15T02:41:13.387Z,5.77
2019-03-15T02:44:26.925Z,5.83
2019-03-15T02:47:24.446Z,5.87
2019-03-15T02:50:37.514Z,6.03
2019-03-15T02:53:41.894Z,6.04
2019-03-15T02:56:27.655Z,6.10
2019-03-15T02:59:17.687Z,6.16
2019-03-15T03:05:24.782Z,6.29
2019-03-15T03:08:31.733Z,6.27
2019-03-15T03:11:19.086Z,6.28
2019-03-15T03:14:07.297Z,6.42
2019-03-15T03:16:58.339Z,6.45
2019-03-15T03:19:49.044Z,6.28
2019-03-15T03:22:39.619Z,6.46
2019-03-15T03:25:41.764Z,6.44
2019-03-15T03:28:31.227Z,6.37
2019-03-15T03:31:24.724Z,6.50
2019-03-15T03:34:16.802Z,6.41
2019-03-15T03:37:06.474Z,6.53
2019-03-15T03:39:55.608Z,6.47
2019-03-15T03:42:47.589Z,6.43
2019-03-15T03:45:48.272Z,6.40
2019-03-15T03:48:39.909Z,6.46
2019-03-15T03:51:34.799Z,6.48
2019-03-15T03:54:22.677Z,6.49
2019-03-15T03:57:13.295Z,6.60
2019-03-15T04:00:04.917Z,6.61
2019-03-15T04:14:22.500Z,6.76
2019-03-15T04:17:32.661Z,6.78
2019-03-15T04:20:52.616Z,6.75
2019-03-15T04:23:48.360Z,6.74
2019-03-15T04:33:05.201Z,6.68
2019-03-15T04:35:59.092Z,6.74
2019-03-15T04:38:56.862Z,6.76
2019-03-15T04:42:08.854Z,6.77
2019-03-15T04:44:58.961Z,6.77
2019-03-15T04:47:51.026Z,6.79
2019-03-15T04:51:02.276Z,6.88
2019-03-15T04:54:05.698Z,6.92
2019-03-15T04:57:32.527Z,6.98
2019-03-15T04:59:37.664Z,6.88
2019-03-15T05:02:33.423Z,7.00
2019-03-15T05:05:29.146Z,7.05
2019-03-15T05:08:13.821Z,7.03
2019-03-15T05:11:05.085Z,6.89
2019-03-15T05:13:58.713Z,6.86
2019-03-15T05:16:46.746Z,6.86
2019-03-15T05:20:08.711Z,6.80
2019-03-15T05:23:15.512Z,6.78
2019-03-15T05:25:43.070Z,6.77
2019-03-15T05:32:18.529Z,6.75
2019-03-15T06:01:28.817Z,6.35
2019-03-15T06:04:19.411Z,6.26
2019-03-15T06:04:21.722Z,6.42
2019-03-15T06:07:07.725Z,6.25
2019-03-15T06:09:56.614Z,6.21
2019-03-15T06:12:54.587Z,6.25
2019-03-15T06:15:46.037Z,6.31
2019-03-15T06:18:38.670Z,6.27
2019-03-15T06:21:26.969Z,6.29
2019-03-15T06:24:16.149Z,6.21
2019-03-15T06:27:04.167Z,6.16
2019-03-15T06:29:52.325Z,6.28
2019-03-15T06:32:41.810Z,6.42
2019-03-15T06:35:31.064Z,6.36
2019-03-15T06:38:19.358Z,6.27
2019-03-15T06:41:14.499Z,6.45
2019-03-15T06:44:02.410Z,6.46
2019-03-15T06:46:50.620Z,6.58
2019-03-15T06:49:42.367Z,6.58
2019-03-15T06:52:30.116Z,6.58
2019-03-15T06:55:17.928Z,6.65
2019-03-15T06:58:09.919Z,6.74
2019-03-15T07:01:05.428Z,6.81
2019-03-15T07:04:08.154Z,6.77
2019-03-15T07:08:38.571Z,6.79
2019-03-15T07:36:30.577Z,7.22
2019-03-15T07:39:18.338Z,7.19
2019-03-15T07:42:07.025Z,7.16
2019-03-15T07:44:58.667Z,7.22
2019-03-15T07:47:47.688Z,7.27
2019-03-15T07:50:35.648Z,7.30
2019-03-15T07:53:26.056Z,7.26
2019-03-15T07:56:13.765Z,7.33
2019-03-15T07:59:20.970Z,7.52
2019-03-15T08:02:10.422Z,7.47
2019-03-15T08:04:58.692Z,7.47
2019-03-15T08:07:50.448Z,7.54
2019-03-15T08:10:38.636Z,7.64
2019-03-15T08:13:27.066Z,7.57
2019-03-15T08:16:14.884Z,7.72
2019-03-15T08:19:05.146Z,7.81
2019-03-15T08:21:56.800Z,7.78
2019-03-15T08:24:51.538Z,7.78
2019-03-15T08:27:35.346Z,7.87
2019-03-15T08:30:26.354Z,7.84
2019-03-15T08:33:14.278Z,7.86
2019-03-15T08:36:03.002Z,7.80
2019-03-15T08:38:51.347Z,7.87
2019-03-15T08:41:39.423Z,7.72
2019-03-15T08:44:28.831Z,7.87
2019-03-15T08:47:34.522Z,7.88
2019-03-15T08:50:24.701Z,7.92
2019-03-15T08:53:12.667Z,7.91
2019-03-15T08:56:06.825Z,8.01
2019-03-15T08:58:54.554Z,8.03
2019-03-15T09:01:44.741Z,8.12
2019-03-15T09:04:36.776Z,8.17
2019-03-15T09:07:32.698Z,8.25
2019-03-15T09:10:24.689Z,8.16
2019-03-15T09:13:12.914Z,8.20
2019-03-15T09:16:03.041Z,8.18
2019-03-15T09:18:50.913Z,8.21
2019-03-15T09:21:39.645Z,8.26
2019-03-15T09:24:32.043Z,8.22
2019-03-15T09:27:21.795Z,8.20
2019-03-15T09:30:22.630Z,8.18
2019-03-15T09:33:02.971Z,8.20
2019-03-15T09:35:55.040Z,8.22
2019-03-15T09:38:46.246Z,8.29
2019-03-15T09:41:39.852Z,8.33
2019-03-15T09:44:28.019Z,8.38
2019-03-15T09:47:18.352Z,8.38
2019-03-15T09:50:20.655Z,8.44
2019-03-15T09:53:01.809Z,8.52
2019-03-15T09:55:56.258Z,8.59
2019-03-15T09:58:46.393Z,8.62
2019-03-15T10:01:35.719Z,8.65
2019-03-15T10:04:31.761Z,8.68
2019-03-15T10:07:20.381Z,8.67
2019-03-15T10:10:13.944Z,8.70
2019-03-15T10:13:06.192Z,8.75
2019-03-15T10:16:00.184Z,8.73
2019-03-15T10:18:52.521Z,8.75
2019-03-15T10:21:43.636Z,8.71
2019-03-15T10:24:33.039Z,8.68
2019-03-15T10:27:21.810Z,8.80
2019-03-15T10:30:12.010Z,8.84
2019-03-15T10:33:01.980Z,8.86
2019-03-15T10:35:50.827Z,8.90
2019-03-15T10:38:40.614Z,8.86
2019-03-15T10:41:28.737Z,8.85
2019-03-15T10:44:19.810Z,8.94
2019-03-15T10:47:08.223Z,9.00
2019-03-15T10:49:57.222Z,8.90
2019-03-15T10:52:45.292Z,8.93
2019-03-15T10:55:37.125Z,9.00
2019-03-15T10:58:25.949Z,8.96
2019-03-15T11:01:15.474Z,8.94
2019-03-15T11:04:16.804Z,9.03
2019-03-15T11:07:07.863Z,8.97
2019-03-15T11:10:02.987Z,9.07
2019-03-15T11:12:52.612Z,9.05
2019-03-15T11:15:47.425Z,9.00
2019-03-15T11:18:44.313Z,9.08
2019-03-15T11:26:13.567Z,9.22
2019-03-15T11:28:58.123Z,9.13
2019-03-15T11:35:09.017Z,9.23
2019-03-15T11:38:01.013Z,9.26
2019-03-15T11:41:00.883Z,9.24
2019-03-15T11:44:03.767Z,9.33
2019-03-15T11:47:29.644Z,9.30
2019-03-15T11:50:21.007Z,9.34
2019-03-15T11:53:19.042Z,9.34
2019-03-15T11:56:10.787Z,9.27
2019-03-15T11:59:02.281Z,9.31
2019-03-15T12:02:03.439Z,9.33
2019-03-15T12:05:06.006Z,9.26
2019-03-15T12:08:59.739Z,9.28
2019-03-15T12:12:21.714Z,9.19
2019-03-15T12:19:35.850Z,9.35
2019-03-15T12:22:26.019Z,9.33
2019-03-15T12:25:19.232Z,9.30
2019-03-15T12:28:17.547Z,9.34
2019-03-15T12:32:23.590Z,9.32
2019-03-15T12:40:16.323Z,9.44
2019-03-15T13:03:59.106Z,9.93
2019-03-15T13:06:52.860Z,9.92
2019-03-15T13:10:44.990Z,9.79
2019-03-15T13:13:51.019Z,9.67
2019-03-15T13:17:27.804Z,9.52
2019-03-15T13:20:22.466Z,9.39
2019-03-15T13:23:11.599Z,9.35
2019-03-15T13:26:09.172Z,9.38
2019-03-15T13:29:13.402Z,9.46
2019-03-15T13:32:32.925Z,9.55
2019-03-15T13:47:28.232Z,9.45
2019-03-15T13:51:22.755Z,9.37
2019-03-15T13:54:49.291Z,9.45
2019-03-15T13:58:57.628Z,9.48
2019-03-15T23:33:58.176Z,9.86
2019-03-15T23:37:00.579Z,9.78
2019-03-15T23:41:08.193Z,9.79
2019-03-15T23:44:14.327Z,9.92
2019-03-15T23:47:03.388Z,9.83
2019-03-15T23:54:00.649Z,9.90
2019-03-15T23:59:58.984Z,9.87
